sensor_id;sensor_type;location;lat;lon;timestamp;P1;durP1;ratioP1;P2;durP2;ratioP2
13973;SDS011;7060;43.770;4.008;2022-09-27T00:02:23;0.83;;;0.30;;
13973;SDS011;7060;43.770;4.008;2022-09-27T00:04:51;0.60;;;0.30;;
13973;SDS011;7060;43.770;4.008;2022-09-27T00:07:22;0.90;;;0.40;;
13973;SDS011;7060;43.770;4.008;2022-09-27T00:09:51;3.40;;;0.73;;
13973;SDS011;7060;43.770;4.008;2022-09-27T00:12:19;1.03;;;0.60;;
13973;SDS011;7060;43.770;4.008;2022-09-27T00:14:47;3.87;;;0.40;;
13973;SDS011;7060;43.770;4.008;2022-09-27T00:17:17;1.87;;;0.43;;
13973;SDS011;7060;43.770;4.008;2022-09-27T00:19:45;1.20;;;0.40;;
13973;SDS011;7060;43.770;4.008;2022-09-27T00:22:13;2.13;;;0.40;;
13973;SDS011;7060;43.770;4.008;2022-09-27T00:24:43;2.67;;;0.40;;
13973;SDS011;7060;43.770;4.008;2022-09-27T00:27:11;1.10;;;0.30;;
13973;SDS011;7060;43.770;4.008;2022-09-27T00:29:40;1.30;;;0.50;;
13973;SDS011;7060;43.770;4.008;2022-09-27T00:32:08;3.60;;;0.60;;
13973;SDS011;7060;43.770;4.008;2022-09-27T00:34:37;2.83;;;0.27;;
13973;SDS011;7060;43.770;4.008;2022-09-27T00:37:06;1.53;;;0.30;;
13973;SDS011;7060;43.770;4.008;2022-09-27T00:39:34;0.57;;;0.30;;
13973;SDS011;7060;43.770;4.008;2022-09-27T00:42:05;1.03;;;0.20;;
13973;SDS011;7060;43.770;4.008;2022-09-27T00:44:49;0.50;;;0.20;;
13973;SDS011;7060;43.770;4.008;2022-09-27T00:47:36;1.73;;;0.20;;
13973;SDS011;7060;43.770;4.008;2022-09-27T00:50:13;0.80;;;0.30;;
13973;SDS011;7060;43.770;4.008;2022-09-27T00:52:50;0.30;;;0.13;;
13973;SDS011;7060;43.770;4.008;2022-09-27T00:55:26;1.13;;;0.17;;
13973;SDS011;7060;43.770;4.008;2022-09-27T00:58:01;0.30;;;0.10;;
13973;SDS011;7060;43.770;4.008;2022-09-27T01:00:31;1.90;;;0.30;;
13973;SDS011;7060;43.770;4.008;2022-09-27T01:02:59;0.30;;;0.10;;
13973;SDS011;7060;43.770;4.008;2022-09-27T01:05:32;2.30;;;0.40;;
13973;SDS011;7060;43.770;4.008;2022-09-27T01:08:01;2.13;;;0.20;;
13973;SDS011;7060;43.770;4.008;2022-09-27T01:10:31;0.63;;;0.10;;
13973;SDS011;7060;43.770;4.008;2022-09-27T01:13:11;0.20;;;0.10;;
13973;SDS011;7060;43.770;4.008;2022-09-27T01:15:48;0.70;;;0.00;;
13973;SDS011;7060;43.770;4.008;2022-09-27T01:18:27;0.30;;;0.10;;
13973;SDS011;7060;43.770;4.008;2022-09-27T01:24:05;0.70;;;0.20;;
13973;SDS011;7060;43.770;4.008;2022-09-27T01:30:14;0.70;;;0.20;;
13973;SDS011;7060;43.770;4.008;2022-09-27T01:32:50;1.10;;;0.20;;
13973;SDS011;7060;43.770;4.008;2022-09-27T01:35:27;0.63;;;0.20;;
13973;SDS011;7060;43.770;4.008;2022-09-27T01:38:02;0.77;;;0.10;;
13973;SDS011;7060;43.770;4.008;2022-09-27T01:40:40;1.20;;;0.10;;
13973;SDS011;7060;43.770;4.008;2022-09-27T01:43:36;2.30;;;0.30;;
13973;SDS011;7060;43.770;4.008;2022-09-27T01:46:16;0.20;;;0.10;;
13973;SDS011;7060;43.770;4.008;2022-09-27T01:49:07;2.57;;;0.20;;
13973;SDS011;7060;43.770;4.008;2022-09-27T01:51:40;1.17;;;0.30;;
13973;SDS011;7060;43.770;4.008;2022-09-27T01:54:14;0.73;;;0.20;;
13973;SDS011;7060;43.770;4.008;2022-09-27T01:56:49;0.80;;;0.30;;
13973;SDS011;7060;43.770;4.008;2022-09-27T01:59:26;0.50;;;0.20;;
13973;SDS011;7060;43.770;4.008;2022-09-27T02:02:14;0.93;;;0.20;;
13973;SDS011;7060;43.770;4.008;2022-09-27T02:05:14;1.10;;;0.30;;
13973;SDS011;7060;43.770;4.008;2022-09-27T02:07:53;1.07;;;0.20;;
13973;SDS011;7060;43.770;4.008;2022-09-27T02:10:26;3.37;;;0.30;;
13973;SDS011;7060;43.770;4.008;2022-09-27T02:13:01;0.97;;;0.20;;
13973;SDS011;7060;43.770;4.008;2022-09-27T02:15:34;0.40;;;0.10;;
13973;SDS011;7060;43.770;4.008;2022-09-27T02:18:31;0.57;;;0.20;;
13973;SDS011;7060;43.770;4.008;2022-09-27T02:21:03;0.77;;;0.20;;
13973;SDS011;7060;43.770;4.008;2022-09-27T02:23:35;2.33;;;0.30;;
13973;SDS011;7060;43.770;4.008;2022-09-27T02:26:11;0.90;;;0.10;;
13973;SDS011;7060;43.770;4.008;2022-09-27T02:28:46;0.70;;;0.10;;
13973;SDS011;7060;43.770;4.008;2022-09-27T02:31:25;0.67;;;0.10;;
13973;SDS011;7060;43.770;4.008;2022-09-27T02:33:57;1.57;;;0.20;;
13973;SDS011;7060;43.770;4.008;2022-09-27T02:36:30;0.80;;;0.37;;
13973;SDS011;7060;43.770;4.008;2022-09-27T02:38:58;1.07;;;0.13;;
13973;SDS011;7060;43.770;4.008;2022-09-27T02:41:29;0.53;;;0.20;;
13973;SDS011;7060;43.770;4.008;2022-09-27T02:43:58;0.63;;;0.10;;
13973;SDS011;7060;43.770;4.008;2022-09-27T02:46:38;0.47;;;0.10;;
13973;SDS011;7060;43.770;4.008;2022-09-27T02:49:27;0.43;;;0.10;;
13973;SDS011;7060;43.770;4.008;2022-09-27T02:52:29;0.13;;;0.00;;
13973;SDS011;7060;43.770;4.008;2022-09-27T02:55:08;0.40;;;0.00;;
13973;SDS011;7060;43.770;4.008;2022-09-27T02:57:59;0.27;;;0.10;;
13973;SDS011;7060;43.770;4.008;2022-09-27T03:01:00;0.20;;;0.00;;
13973;SDS011;7060;43.770;4.008;2022-09-27T03:03:44;0.30;;;0.10;;
13973;SDS011;7060;43.770;4.008;2022-09-27T03:06:20;0.30;;;0.10;;
13973;SDS011;7060;43.770;4.008;2022-09-27T03:08:50;0.20;;;0.10;;
13973;SDS011;7060;43.770;4.008;2022-09-27T03:11:19;0.10;;;0.00;;
13973;SDS011;7060;43.770;4.008;2022-09-27T03:13:48;0.10;;;0.10;;
13973;SDS011;7060;43.770;4.008;2022-09-27T03:16:36;0.07;;;0.07;;
13973;SDS011;7060;43.770;4.008;2022-09-27T03:19:41;0.33;;;0.00;;
13973;SDS011;7060;43.770;4.008;2022-09-27T03:22:26;0.30;;;0.10;;
13973;SDS011;7060;43.770;4.008;2022-09-27T03:24:54;0.30;;;0.00;;
13973;SDS011;7060;43.770;4.008;2022-09-27T03:27:23;0.40;;;0.00;;
13973;SDS011;7060;43.770;4.008;2022-09-27T03:29:51;0.97;;;0.20;;
13973;SDS011;7060;43.770;4.008;2022-09-27T03:32:20;0.30;;;0.10;;
13973;SDS011;7060;43.770;4.008;2022-09-27T03:35:08;0.60;;;0.10;;
13973;SDS011;7060;43.770;4.008;2022-09-27T03:37:38;0.80;;;0.20;;
13973;SDS011;7060;43.770;4.008;2022-09-27T03:40:08;1.40;;;0.30;;
13973;SDS011;7060;43.770;4.008;2022-09-27T03:42:37;1.70;;;0.60;;
13973;SDS011;7060;43.770;4.008;2022-09-27T03:45:06;2.57;;;0.83;;
13973;SDS011;7060;43.770;4.008;2022-09-27T03:47:38;1.77;;;0.50;;
13973;SDS011;7060;43.770;4.008;2022-09-27T03:50:08;2.60;;;0.40;;
13973;SDS011;7060;43.770;4.008;2022-09-27T03:52:39;3.13;;;0.47;;
13973;SDS011;7060;43.770;4.008;2022-09-27T03:55:09;2.17;;;0.40;;
13973;SDS011;7060;43.770;4.008;2022-09-27T03:57:42;2.10;;;0.50;;
13973;SDS011;7060;43.770;4.008;2022-09-27T04:00:13;2.27;;;0.50;;
13973;SDS011;7060;43.770;4.008;2022-09-27T04:02:43;2.70;;;0.43;;
13973;SDS011;7060;43.770;4.008;2022-09-27T04:05:23;1.70;;;0.70;;
13973;SDS011;7060;43.770;4.008;2022-09-27T04:07:58;2.67;;;0.70;;
13973;SDS011;7060;43.770;4.008;2022-09-27T04:10:29;3.43;;;0.60;;
13973;SDS011;7060;43.770;4.008;2022-09-27T04:12:58;2.43;;;0.60;;
13973;SDS011;7060;43.770;4.008;2022-09-27T04:15:30;2.93;;;0.60;;
13973;SDS011;7060;43.770;4.008;2022-09-27T04:18:19;3.60;;;0.47;;
13973;SDS011;7060;43.770;4.008;2022-09-27T04:20:47;2.80;;;0.60;;
13973;SDS011;7060;43.770;4.008;2022-09-27T04:23:18;2.90;;;0.70;;
13973;SDS011;7060;43.770;4.008;2022-09-27T04:25:50;1.97;;;0.50;;
13973;SDS011;7060;43.770;4.008;2022-09-27T04:28:39;3.20;;;0.50;;
13973;SDS011;7060;43.770;4.008;2022-09-27T04:31:07;3.73;;;0.57;;
13973;SDS011;7060;43.770;4.008;2022-09-27T04:34:08;2.13;;;0.50;;
13973;SDS011;7060;43.770;4.008;2022-09-27T04:36:36;2.47;;;0.60;;
13973;SDS011;7060;43.770;4.008;2022-09-27T04:39:09;2.83;;;0.70;;
13973;SDS011;7060;43.770;4.008;2022-09-27T04:41:42;2.83;;;0.47;;
13973;SDS011;7060;43.770;4.008;2022-09-27T04:44:12;3.40;;;0.50;;
13973;SDS011;7060;43.770;4.008;2022-09-27T04:46:46;1.60;;;0.40;;
13973;SDS011;7060;43.770;4.008;2022-09-27T04:49:14;5.20;;;0.30;;
13973;SDS011;7060;43.770;4.008;2022-09-27T04:51:43;1.50;;;0.60;;
13973;SDS011;7060;43.770;4.008;2022-09-27T04:54:14;2.53;;;0.50;;
13973;SDS011;7060;43.770;4.008;2022-09-27T04:56:54;3.23;;;0.60;;
13973;SDS011;7060;43.770;4.008;2022-09-27T04:59:22;3.17;;;0.30;;
13973;SDS011;7060;43.770;4.008;2022-09-27T05:01:51;2.73;;;0.50;;
13973;SDS011;7060;43.770;4.008;2022-09-27T05:04:45;4.70;;;0.57;;
13973;SDS011;7060;43.770;4.008;2022-09-27T05:07:17;3.80;;;0.50;;
13973;SDS011;7060;43.770;4.008;2022-09-27T05:09:53;4.57;;;0.67;;
13973;SDS011;7060;43.770;4.008;2022-09-27T05:12:22;1.90;;;0.43;;
13973;SDS011;7060;43.770;4.008;2022-09-27T05:14:56;2.00;;;0.50;;
13973;SDS011;7060;43.770;4.008;2022-09-27T05:17:31;1.50;;;0.33;;
13973;SDS011;7060;43.770;4.008;2022-09-27T05:20:18;2.53;;;0.63;;
13973;SDS011;7060;43.770;4.008;2022-09-27T05:22:53;1.73;;;0.40;;
13973;SDS011;7060;43.770;4.008;2022-09-27T05:25:24;3.00;;;0.40;;
13973;SDS011;7060;43.770;4.008;2022-09-27T05:27:52;2.70;;;0.60;;
13973;SDS011;7060;43.770;4.008;2022-09-27T05:30:21;2.90;;;0.90;;
13973;SDS011;7060;43.770;4.008;2022-09-27T05:32:53;4.23;;;0.60;;
13973;SDS011;7060;43.770;4.008;2022-09-27T05:35:42;3.30;;;0.40;;
13973;SDS011;7060;43.770;4.008;2022-09-27T05:38:11;2.50;;;0.50;;
13973;SDS011;7060;43.770;4.008;2022-09-27T05:40:45;2.77;;;0.50;;
13973;SDS011;7060;43.770;4.008;2022-09-27T05:43:16;3.10;;;0.60;;
13973;SDS011;7060;43.770;4.008;2022-09-27T05:45:45;4.53;;;0.70;;
13973;SDS011;7060;43.770;4.008;2022-09-27T05:48:17;2.27;;;0.50;;
13973;SDS011;7060;43.770;4.008;2022-09-27T05:50:53;2.07;;;0.37;;
13973;SDS011;7060;43.770;4.008;2022-09-27T05:53:22;4.07;;;0.80;;
13973;SDS011;7060;43.770;4.008;2022-09-27T05:55:52;5.03;;;0.50;;
13973;SDS011;7060;43.770;4.008;2022-09-27T05:58:29;4.27;;;0.50;;
13973;SDS011;7060;43.770;4.008;2022-09-27T06:01:11;3.57;;;0.60;;
13973;SDS011;7060;43.770;4.008;2022-09-27T06:04:08;2.77;;;0.50;;
13973;SDS011;7060;43.770;4.008;2022-09-27T06:07:03;2.53;;;0.70;;
13973;SDS011;7060;43.770;4.008;2022-09-27T06:09:32;4.70;;;0.80;;
13973;SDS011;7060;43.770;4.008;2022-09-27T06:12:02;2.67;;;0.67;;
13973;SDS011;7060;43.770;4.008;2022-09-27T06:14:37;4.13;;;0.53;;
13973;SDS011;7060;43.770;4.008;2022-09-27T06:17:26;4.50;;;0.70;;
13973;SDS011;7060;43.770;4.008;2022-09-27T06:19:56;2.07;;;0.40;;
13973;SDS011;7060;43.770;4.008;2022-09-27T06:22:26;3.53;;;0.40;;
13973;SDS011;7060;43.770;4.008;2022-09-27T06:24:59;3.40;;;0.60;;
13973;SDS011;7060;43.770;4.008;2022-09-27T06:27:35;1.57;;;0.50;;
13973;SDS011;7060;43.770;4.008;2022-09-27T06:30:06;3.07;;;0.60;;
13973;SDS011;7060;43.770;4.008;2022-09-27T06:32:54;3.50;;;0.70;;
13973;SDS011;7060;43.770;4.008;2022-09-27T06:35:37;2.80;;;0.60;;
13973;SDS011;7060;43.770;4.008;2022-09-27T06:38:07;2.97;;;0.87;;
13973;SDS011;7060;43.770;4.008;2022-09-27T06:40:46;3.13;;;0.43;;
13973;SDS011;7060;43.770;4.008;2022-09-27T06:43:30;4.00;;;0.90;;
13973;SDS011;7060;43.770;4.008;2022-09-27T06:46:12;1.57;;;0.33;;
13973;SDS011;7060;43.770;4.008;2022-09-27T06:49:03;4.10;;;0.60;;
13973;SDS011;7060;43.770;4.008;2022-09-27T06:51:32;2.40;;;0.87;;
13973;SDS011;7060;43.770;4.008;2022-09-27T06:54:09;2.43;;;0.60;;
13973;SDS011;7060;43.770;4.008;2022-09-27T06:56:46;5.00;;;1.03;;
13973;SDS011;7060;43.770;4.008;2022-09-27T06:59:29;2.43;;;0.53;;
13973;SDS011;7060;43.770;4.008;2022-09-27T07:02:33;4.70;;;0.60;;
13973;SDS011;7060;43.770;4.008;2022-09-27T07:05:28;5.00;;;0.70;;
13973;SDS011;7060;43.770;4.008;2022-09-27T07:08:07;4.40;;;0.77;;
13973;SDS011;7060;43.770;4.008;2022-09-27T07:10:38;3.53;;;0.73;;
13973;SDS011;7060;43.770;4.008;2022-09-27T07:13:08;4.20;;;0.90;;
13973;SDS011;7060;43.770;4.008;2022-09-27T07:15:40;3.33;;;0.60;;
13973;SDS011;7060;43.770;4.008;2022-09-27T07:18:12;4.23;;;0.70;;
13973;SDS011;7060;43.770;4.008;2022-09-27T07:20:41;4.00;;;0.80;;
13973;SDS011;7060;43.770;4.008;2022-09-27T07:23:09;3.93;;;0.77;;
13973;SDS011;7060;43.770;4.008;2022-09-27T07:25:38;5.00;;;0.77;;
13973;SDS011;7060;43.770;4.008;2022-09-27T07:28:08;2.53;;;0.60;;
13973;SDS011;7060;43.770;4.008;2022-09-27T07:30:49;2.87;;;0.67;;
13973;SDS011;7060;43.770;4.008;2022-09-27T07:33:22;4.67;;;0.80;;
13973;SDS011;7060;43.770;4.008;2022-09-27T07:35:51;3.67;;;1.00;;
13973;SDS011;7060;43.770;4.008;2022-09-27T07:38:19;4.97;;;0.60;;
13973;SDS011;7060;43.770;4.008;2022-09-27T07:40:48;3.20;;;0.70;;
13973;SDS011;7060;43.770;4.008;2022-09-27T07:43:17;2.07;;;0.60;;
13973;SDS011;7060;43.770;4.008;2022-09-27T07:45:46;2.33;;;0.57;;
13973;SDS011;7060;43.770;4.008;2022-09-27T07:48:52;3.40;;;0.70;;
13973;SDS011;7060;43.770;4.008;2022-09-27T07:51:38;3.23;;;0.60;;
13973;SDS011;7060;43.770;4.008;2022-09-27T07:54:25;4.20;;;0.70;;
13973;SDS011;7060;43.770;4.008;2022-09-27T07:57:05;5.20;;;0.97;;
13973;SDS011;7060;43.770;4.008;2022-09-27T07:59:44;3.20;;;0.70;;
13973;SDS011;7060;43.770;4.008;2022-09-27T08:02:16;2.13;;;0.73;;
13973;SDS011;7060;43.770;4.008;2022-09-27T08:04:46;3.43;;;0.67;;
13973;SDS011;7060;43.770;4.008;2022-09-27T08:07:15;3.13;;;0.70;;
13973;SDS011;7060;43.770;4.008;2022-09-27T08:09:48;2.17;;;0.73;;
13973;SDS011;7060;43.770;4.008;2022-09-27T08:12:16;3.57;;;0.80;;
13973;SDS011;7060;43.770;4.008;2022-09-27T08:14:48;4.13;;;0.90;;
13973;SDS011;7060;43.770;4.008;2022-09-27T08:17:18;2.00;;;0.60;;
13973;SDS011;7060;43.770;4.008;2022-09-27T08:20:07;3.17;;;0.80;;
13973;SDS011;7060;43.770;4.008;2022-09-27T08:23:04;2.77;;;0.70;;
13973;SDS011;7060;43.770;4.008;2022-09-27T08:25:39;2.07;;;0.57;;
13973;SDS011;7060;43.770;4.008;2022-09-27T08:28:25;2.50;;;0.87;;
13973;SDS011;7060;43.770;4.008;2022-09-27T08:30:59;2.87;;;0.57;;
13973;SDS011;7060;43.770;4.008;2022-09-27T08:33:29;1.93;;;0.70;;
13973;SDS011;7060;43.770;4.008;2022-09-27T08:36:02;4.07;;;0.60;;
13973;SDS011;7060;43.770;4.008;2022-09-27T08:38:31;2.10;;;0.80;;
13973;SDS011;7060;43.770;4.008;2022-09-27T08:41:00;1.43;;;0.60;;
13973;SDS011;7060;43.770;4.008;2022-09-27T08:43:35;2.13;;;0.50;;
13973;SDS011;7060;43.770;4.008;2022-09-27T08:46:16;2.40;;;0.60;;
13973;SDS011;7060;43.770;4.008;2022-09-27T08:48:57;2.83;;;0.60;;
13973;SDS011;7060;43.770;4.008;2022-09-27T08:51:32;3.07;;;0.80;;
13973;SDS011;7060;43.770;4.008;2022-09-27T08:54:04;4.07;;;0.93;;
13973;SDS011;7060;43.770;4.008;2022-09-27T08:56:34;2.20;;;0.70;;
13973;SDS011;7060;43.770;4.008;2022-09-27T08:59:06;2.33;;;0.50;;
13973;SDS011;7060;43.770;4.008;2022-09-27T09:01:40;3.50;;;0.80;;
13973;SDS011;7060;43.770;4.008;2022-09-27T09:04:23;5.67;;;0.90;;
13973;SDS011;7060;43.770;4.008;2022-09-27T09:06:57;2.57;;;1.07;;
13973;SDS011;7060;43.770;4.008;2022-09-27T09:09:38;3.27;;;0.50;;
13973;SDS011;7060;43.770;4.008;2022-09-27T09:12:20;3.13;;;0.50;;
13973;SDS011;7060;43.770;4.008;2022-09-27T09:15:29;2.87;;;0.60;;
13973;SDS011;7060;43.770;4.008;2022-09-27T09:18:29;2.50;;;0.73;;
13973;SDS011;7060;43.770;4.008;2022-09-27T09:21:18;4.47;;;0.70;;
13973;SDS011;7060;43.770;4.008;2022-09-27T09:26:46;1.40;;;0.53;;
13973;SDS011;7060;43.770;4.008;2022-09-27T09:29:25;3.37;;;0.63;;
13973;SDS011;7060;43.770;4.008;2022-09-27T09:32:05;3.23;;;0.53;;
13973;SDS011;7060;43.770;4.008;2022-09-27T09:34:47;3.13;;;0.93;;
13973;SDS011;7060;43.770;4.008;2022-09-27T09:37:25;3.13;;;0.60;;
13973;SDS011;7060;43.770;4.008;2022-09-27T09:40:04;2.43;;;0.67;;
13973;SDS011;7060;43.770;4.008;2022-09-27T09:42:44;2.23;;;0.47;;
13973;SDS011;7060;43.770;4.008;2022-09-27T09:45:18;1.37;;;0.43;;
13973;SDS011;7060;43.770;4.008;2022-09-27T09:47:53;2.80;;;0.77;;
13973;SDS011;7060;43.770;4.008;2022-09-27T09:50:28;1.37;;;0.40;;
13973;SDS011;7060;43.770;4.008;2022-09-27T09:53:03;2.90;;;0.73;;
13973;SDS011;7060;43.770;4.008;2022-09-27T09:55:42;5.10;;;0.87;;
13973;SDS011;7060;43.770;4.008;2022-09-27T09:58:19;1.83;;;0.63;;
13973;SDS011;7060;43.770;4.008;2022-09-27T10:00:56;2.80;;;1.00;;
13973;SDS011;7060;43.770;4.008;2022-09-27T10:03:28;3.57;;;0.70;;
13973;SDS011;7060;43.770;4.008;2022-09-27T10:05:56;1.90;;;0.50;;
13973;SDS011;7060;43.770;4.008;2022-09-27T10:08:26;2.87;;;0.70;;
13973;SDS011;7060;43.770;4.008;2022-09-27T10:11:15;4.80;;;0.70;;
13973;SDS011;7060;43.770;4.008;2022-09-27T10:13:56;3.47;;;0.70;;
13973;SDS011;7060;43.770;4.008;2022-09-27T10:16:25;2.87;;;0.70;;
13973;SDS011;7060;43.770;4.008;2022-09-27T10:18:56;8.13;;;0.93;;
13973;SDS011;7060;43.770;4.008;2022-09-27T10:21:29;3.10;;;0.97;;
13973;SDS011;7060;43.770;4.008;2022-09-27T10:24:07;3.67;;;1.03;;
13973;SDS011;7060;43.770;4.008;2022-09-27T10:27:06;3.53;;;0.80;;
13973;SDS011;7060;43.770;4.008;2022-09-27T10:29:37;3.50;;;0.80;;
13973;SDS011;7060;43.770;4.008;2022-09-27T10:32:18;2.63;;;0.90;;
13973;SDS011;7060;43.770;4.008;2022-09-27T10:35:19;3.10;;;0.60;;
13973;SDS011;7060;43.770;4.008;2022-09-27T10:38:11;4.50;;;0.67;;
13973;SDS011;7060;43.770;4.008;2022-09-27T10:40:51;4.83;;;0.80;;
13973;SDS011;7060;43.770;4.008;2022-09-27T10:43:26;1.97;;;0.63;;
13973;SDS011;7060;43.770;4.008;2022-09-27T10:46:11;2.40;;;0.70;;
13973;SDS011;7060;43.770;4.008;2022-09-27T10:48:46;3.43;;;0.70;;
13973;SDS011;7060;43.770;4.008;2022-09-27T10:51:20;3.13;;;0.60;;
13973;SDS011;7060;43.770;4.008;2022-09-27T10:53:51;1.80;;;0.63;;
13973;SDS011;7060;43.770;4.008;2022-09-27T10:56:30;2.53;;;0.60;;
13973;SDS011;7060;43.770;4.008;2022-09-27T10:59:01;2.40;;;0.63;;
13973;SDS011;7060;43.770;4.008;2022-09-27T11:01:38;2.80;;;0.90;;
13973;SDS011;7060;43.770;4.008;2022-09-27T11:04:37;1.83;;;0.57;;
13973;SDS011;7060;43.770;4.008;2022-09-27T11:07:16;3.13;;;0.70;;
13973;SDS011;7060;43.770;4.008;2022-09-27T11:09:59;4.23;;;0.90;;
13973;SDS011;7060;43.770;4.008;2022-09-27T11:12:33;3.40;;;0.90;;
13973;SDS011;7060;43.770;4.008;2022-09-27T11:15:03;2.70;;;0.70;;
13973;SDS011;7060;43.770;4.008;2022-09-27T11:17:38;3.90;;;1.03;;
13973;SDS011;7060;43.770;4.008;2022-09-27T11:20:18;4.27;;;0.90;;
13973;SDS011;7060;43.770;4.008;2022-09-27T11:23:17;3.17;;;0.80;;
13973;SDS011;7060;43.770;4.008;2022-09-27T11:26:08;2.80;;;0.80;;
13973;SDS011;7060;43.770;4.008;2022-09-27T11:29:05;3.07;;;0.77;;
13973;SDS011;7060;43.770;4.008;2022-09-27T11:32:24;3.40;;;0.73;;
13973;SDS011;7060;43.770;4.008;2022-09-27T11:35:04;2.60;;;0.50;;
13973;SDS011;7060;43.770;4.008;2022-09-27T11:37:42;1.70;;;0.60;;
13973;SDS011;7060;43.770;4.008;2022-09-27T11:40:24;4.03;;;0.80;;
13973;SDS011;7060;43.770;4.008;2022-09-27T11:43:11;3.37;;;0.73;;
13973;SDS011;7060;43.770;4.008;2022-09-27T11:46:05;2.20;;;0.83;;
13973;SDS011;7060;43.770;4.008;2022-09-27T11:52:19;6.57;;;0.70;;
13973;SDS011;7060;43.770;4.008;2022-09-27T11:57:49;1.70;;;0.70;;
13973;SDS011;7060;43.770;4.008;2022-09-27T12:00:31;5.23;;;1.00;;
13973;SDS011;7060;43.770;4.008;2022-09-27T12:06:23;3.40;;;0.87;;
13973;SDS011;7060;43.770;4.008;2022-09-27T12:09:02;2.33;;;0.73;;
13973;SDS011;7060;43.770;4.008;2022-09-27T12:11:36;3.93;;;0.90;;
13973;SDS011;7060;43.770;4.008;2022-09-27T12:14:11;4.67;;;1.00;;
13973;SDS011;7060;43.770;4.008;2022-09-27T12:16:52;2.20;;;0.73;;
13973;SDS011;7060;43.770;4.008;2022-09-27T12:19:25;5.53;;;1.07;;
13973;SDS011;7060;43.770;4.008;2022-09-27T12:22:03;2.63;;;0.70;;
13973;SDS011;7060;43.770;4.008;2022-09-27T12:24:39;2.83;;;0.70;;
13973;SDS011;7060;43.770;4.008;2022-09-27T12:27:31;5.00;;;0.70;;
13973;SDS011;7060;43.770;4.008;2022-09-27T12:30:05;3.53;;;0.70;;
13973;SDS011;7060;43.770;4.008;2022-09-27T12:32:42;2.37;;;0.70;;
13973;SDS011;7060;43.770;4.008;2022-09-27T12:35:20;3.53;;;1.00;;
13973;SDS011;7060;43.770;4.008;2022-09-27T12:37:54;2.60;;;0.77;;
13973;SDS011;7060;43.770;4.008;2022-09-27T12:40:27;4.00;;;0.70;;
13973;SDS011;7060;43.770;4.008;2022-09-27T12:43:04;2.33;;;0.70;;
13973;SDS011;7060;43.770;4.008;2022-09-27T12:46:06;2.23;;;0.60;;
13973;SDS011;7060;43.770;4.008;2022-09-27T12:48:43;2.80;;;0.73;;
13973;SDS011;7060;43.770;4.008;2022-09-27T12:51:22;3.30;;;0.73;;
13973;SDS011;7060;43.770;4.008;2022-09-27T12:54:06;2.20;;;0.60;;
13973;SDS011;7060;43.770;4.008;2022-09-27T12:56:53;3.70;;;0.80;;
13973;SDS011;7060;43.770;4.008;2022-09-27T12:59:38;3.25;;;0.60;;
13973;SDS011;7060;43.770;4.008;2022-09-27T13:02:30;1.80;;;0.60;;
13973;SDS011;7060;43.770;4.008;2022-09-27T13:09:01;2.70;;;0.87;;
13973;SDS011;7060;43.770;4.008;2022-09-27T13:11:49;2.77;;;0.80;;
13973;SDS011;7060;43.770;4.008;2022-09-27T13:14:30;2.17;;;0.73;;
13973;SDS011;7060;43.770;4.008;2022-09-27T13:17:02;4.00;;;0.87;;
13973;SDS011;7060;43.770;4.008;2022-09-27T13:19:41;2.47;;;0.90;;
13973;SDS011;7060;43.770;4.008;2022-09-27T13:28:56;4.00;;;0.77;;
13973;SDS011;7060;43.770;4.008;2022-09-27T13:35:08;2.93;;;0.70;;
13973;SDS011;7060;43.770;4.008;2022-09-27T13:37:46;3.07;;;0.70;;
13973;SDS011;7060;43.770;4.008;2022-09-27T13:40:27;4.43;;;1.20;;
13973;SDS011;7060;43.770;4.008;2022-09-27T13:43:31;4.18;;;1.00;;
13973;SDS011;7060;43.770;4.008;2022-09-27T13:46:22;3.95;;;0.90;;
13973;SDS011;7060;43.770;4.008;2022-09-27T13:48:54;3.03;;;0.85;;
13973;SDS011;7060;43.770;4.008;2022-09-27T13:51:55;2.42;;;0.75;;
13973;SDS011;7060;43.770;4.008;2022-09-27T13:54:36;6.25;;;0.82;;
13973;SDS011;7060;43.770;4.008;2022-09-27T14:00:17;1.52;;;0.60;;
13973;SDS011;7060;43.770;4.008;2022-09-27T14:02:56;4.32;;;1.00;;
13973;SDS011;7060;43.770;4.008;2022-09-27T14:05:31;2.47;;;0.70;;
13973;SDS011;7060;43.770;4.008;2022-09-27T14:08:03;2.73;;;0.73;;
13973;SDS011;7060;43.770;4.008;2022-09-27T14:10:34;2.05;;;0.60;;
13973;SDS011;7060;43.770;4.008;2022-09-27T14:13:03;5.55;;;0.70;;
13973;SDS011;7060;43.770;4.008;2022-09-27T14:15:44;3.63;;;0.80;;
13973;SDS011;7060;43.770;4.008;2022-09-27T14:18:17;3.22;;;0.68;;
13973;SDS011;7060;43.770;4.008;2022-09-27T14:20:45;5.53;;;0.93;;
13973;SDS011;7060;43.770;4.008;2022-09-27T14:23:48;8.80;;;0.73;;
13973;SDS011;7060;43.770;4.008;2022-09-27T14:26:20;3.30;;;0.60;;
13973;SDS011;7060;43.770;4.008;2022-09-27T14:28:50;2.87;;;0.63;;
13973;SDS011;7060;43.770;4.008;2022-09-27T14:31:27;3.72;;;0.70;;
13973;SDS011;7060;43.770;4.008;2022-09-27T14:34:18;3.83;;;0.80;;
13973;SDS011;7060;43.770;4.008;2022-09-27T14:36:46;4.57;;;0.50;;
13973;SDS011;7060;43.770;4.008;2022-09-27T14:39:51;1.97;;;0.60;;
13973;SDS011;7060;43.770;4.008;2022-09-27T14:42:29;2.17;;;0.50;;
13973;SDS011;7060;43.770;4.008;2022-09-27T14:45:03;2.10;;;0.67;;
13973;SDS011;7060;43.770;4.008;2022-09-27T14:47:45;4.20;;;0.60;;
13973;SDS011;7060;43.770;4.008;2022-09-27T14:50:16;3.83;;;0.60;;
13973;SDS011;7060;43.770;4.008;2022-09-27T14:52:50;3.27;;;0.70;;
13973;SDS011;7060;43.770;4.008;2022-09-27T14:55:22;2.42;;;0.73;;
13973;SDS011;7060;43.770;4.008;2022-09-27T14:57:53;2.07;;;0.50;;
13973;SDS011;7060;43.770;4.008;2022-09-27T15:00:24;3.37;;;0.47;;
13973;SDS011;7060;43.770;4.008;2022-09-27T15:02:58;4.60;;;0.53;;
13973;SDS011;7060;43.770;4.008;2022-09-27T15:05:30;5.30;;;0.50;;
13973;SDS011;7060;43.770;4.008;2022-09-27T15:08:01;2.27;;;0.87;;
13973;SDS011;7060;43.770;4.008;2022-09-27T15:10:31;1.57;;;0.50;;
13973;SDS011;7060;43.770;4.008;2022-09-27T15:13:02;3.00;;;0.70;;
13973;SDS011;7060;43.770;4.008;2022-09-27T15:15:33;2.47;;;0.60;;
13973;SDS011;7060;43.770;4.008;2022-09-27T15:21:06;3.13;;;0.50;;
13973;SDS011;7060;43.770;4.008;2022-09-27T15:23:36;2.37;;;0.53;;
13973;SDS011;7060;43.770;4.008;2022-09-27T15:26:07;2.23;;;0.60;;
13973;SDS011;7060;43.770;4.008;2022-09-27T15:28:43;3.03;;;0.63;;
13973;SDS011;7060;43.770;4.008;2022-09-27T15:31:15;1.93;;;0.50;;
13973;SDS011;7060;43.770;4.008;2022-09-27T15:33:51;2.20;;;0.50;;
13973;SDS011;7060;43.770;4.008;2022-09-27T15:39:17;2.00;;;0.50;;
13973;SDS011;7060;43.770;4.008;2022-09-27T15:42:04;2.20;;;0.57;;
13973;SDS011;7060;43.770;4.008;2022-09-27T15:44:35;2.47;;;0.50;;
13973;SDS011;7060;43.770;4.008;2022-09-27T15:47:09;2.37;;;0.50;;
13973;SDS011;7060;43.770;4.008;2022-09-27T15:53:06;1.03;;;0.30;;
13973;SDS011;7060;43.770;4.008;2022-09-27T15:55:38;0.60;;;0.30;;
13973;SDS011;7060;43.770;4.008;2022-09-27T15:58:11;1.10;;;0.20;;
13973;SDS011;7060;43.770;4.008;2022-09-27T16:00:51;3.23;;;0.30;;
13973;SDS011;7060;43.770;4.008;2022-09-27T16:03:20;1.47;;;0.23;;
13973;SDS011;7060;43.770;4.008;2022-09-27T16:05:50;1.60;;;0.23;;
13973;SDS011;7060;43.770;4.008;2022-09-27T16:08:21;0.70;;;0.13;;
13973;SDS011;7060;43.770;4.008;2022-09-27T16:10:50;1.47;;;0.30;;
13973;SDS011;7060;43.770;4.008;2022-09-27T16:13:20;1.47;;;0.30;;
13973;SDS011;7060;43.770;4.008;2022-09-27T16:15:48;0.77;;;0.30;;
13973;SDS011;7060;43.770;4.008;2022-09-27T16:18:17;0.90;;;0.30;;
13973;SDS011;7060;43.770;4.008;2022-09-27T16:20:45;0.60;;;0.30;;
13973;SDS011;7060;43.770;4.008;2022-09-27T16:23:15;1.80;;;0.30;;
13973;SDS011;7060;43.770;4.008;2022-09-27T16:25:43;3.00;;;0.30;;
13973;SDS011;7060;43.770;4.008;2022-09-27T16:28:12;1.50;;;0.20;;
13973;SDS011;7060;43.770;4.008;2022-09-27T16:30:40;2.00;;;0.30;;
13973;SDS011;7060;43.770;4.008;2022-09-27T16:33:08;1.70;;;0.30;;
13973;SDS011;7060;43.770;4.008;2022-09-27T16:35:37;1.47;;;0.40;;
13973;SDS011;7060;43.770;4.008;2022-09-27T16:38:07;0.97;;;0.17;;
13973;SDS011;7060;43.770;4.008;2022-09-27T16:40:38;1.60;;;0.20;;
13973;SDS011;7060;43.770;4.008;2022-09-27T16:43:06;1.57;;;0.50;;
13973;SDS011;7060;43.770;4.008;2022-09-27T16:45:34;1.53;;;0.20;;